sensor_id;sensor_type;location;lat;lon;timestamp;pressure;altitude;pressure_sealevel;temperature;humidity
50484;BME280;36409;52.168;20.878;2023-01-24T00:01:44;102718.10;;;0.99;84.60
50484;BME280;36409;52.168;20.878;2023-01-24T00:04:13;102717.23;;;0.98;85.20
50484;BME280;36409;52.168;20.878;2023-01-24T00:06:42;102715.53;;;0.99;84.47
50484;BME280;36409;52.168;20.878;2023-01-24T00:09:11;102718.10;;;0.99;85.38
50484;BME280;36409;52.168;20.878;2023-01-24T00:11:40;102716.44;;;0.99;85.08
50484;BME280;36409;52.168;20.878;2023-01-24T00:14:10;102712.28;;;1.01;85.13
50484;BME280;36409;52.168;20.878;2023-01-24T00:16:39;102707.14;;;1.01;84.33
50484;BME280;36409;52.168;20.878;2023-01-24T00:19:10;102708.72;;;0.99;84.40
50484;BME280;36409;52.168;20.878;2023-01-24T00:21:39;102704.45;;;1.00;85.24
50484;BME280;36409;52.168;20.878;2023-01-24T00:24:09;102708.02;;;1.02;85.43
50484;BME280;36409;52.168;20.878;2023-01-24T00:26:40;102703.66;;;1.01;84.68
50484;BME280;36409;52.168;20.878;2023-01-24T00:29:09;102707.02;;;1.00;85.37
50484;BME280;36409;52.168;20.878;2023-01-24T00:31:38;102708.81;;;1.01;84.46
50484;BME280;36409;52.168;20.878;2023-01-24T00:34:08;102704.66;;;1.03;84.51
50484;BME280;36409;52.168;20.878;2023-01-24T00:36:38;102704.66;;;1.03;85.10
50484;BME280;36409;52.168;20.878;2023-01-24T00:39:08;102700.30;;;1.02;84.47
50484;BME280;36409;52.168;20.878;2023-01-24T00:41:41;102709.88;;;1.04;85.37
50484;BME280;36409;52.168;20.878;2023-01-24T00:44:10;102700.50;;;1.05;84.91
50484;BME280;36409;52.168;20.878;2023-01-24T00:46:41;102700.50;;;1.05;84.89
50484;BME280;36409;52.168;20.878;2023-01-24T00:49:12;102708.22;;;1.05;85.26
50484;BME280;36409;52.168;20.878;2023-01-24T00:51:41;102699.59;;;1.04;84.54
50484;BME280;36409;52.168;20.878;2023-01-24T00:54:10;102699.51;;;1.03;85.09
50484;BME280;36409;52.168;20.878;2023-01-24T00:56:42;102701.29;;;1.04;85.02
50484;BME280;36409;52.168;20.878;2023-01-24T00:59:11;102700.30;;;1.02;84.29
50484;BME280;36409;52.168;20.878;2023-01-24T01:01:40;102707.22;;;1.03;84.50
50484;BME280;36409;52.168;20.878;2023-01-24T01:04:11;102707.22;;;1.03;84.84
50484;BME280;36409;52.168;20.878;2023-01-24T01:06:44;102715.81;;;1.03;85.40
50484;BME280;36409;52.168;20.878;2023-01-24T01:09:13;102709.00;;;1.04;84.94
50484;BME280;36409;52.168;20.878;2023-01-24T01:11:43;102704.73;;;1.04;85.16
50484;BME280;36409;52.168;20.878;2023-01-24T01:14:12;102697.02;;;1.04;84.75
50484;BME280;36409;52.168;20.878;2023-01-24T01:16:42;102705.64;;;1.05;85.49
50484;BME280;36409;52.168;20.878;2023-01-24T01:19:14;102706.52;;;1.05;84.67
50484;BME280;36409;52.168;20.878;2023-01-24T01:21:43;102706.52;;;1.05;84.75
50484;BME280;36409;52.168;20.878;2023-01-24T01:24:12;102709.17;;;1.07;85.40
50484;BME280;36409;52.168;20.878;2023-01-24T01:26:42;102705.64;;;1.05;84.88
50484;BME280;36409;52.168;20.878;2023-01-24T01:29:13;102713.44;;;1.06;84.62
50484;BME280;36409;52.168;20.878;2023-01-24T01:31:42;102708.30;;;1.06;84.42
50484;BME280;36409;52.168;20.878;2023-01-24T01:34:14;102715.14;;;1.06;84.38
50484;BME280;36409;52.168;20.878;2023-01-24T01:36:45;102708.22;;;1.05;84.56
50484;BME280;36409;52.168;20.878;2023-01-24T01:39:14;102715.14;;;1.06;84.52
50484;BME280;36409;52.168;20.878;2023-01-24T01:41:43;102710.88;;;1.06;85.22
50484;BME280;36409;52.168;20.878;2023-01-24T01:44:21;102708.30;;;1.06;84.61
50484;BME280;36409;52.168;20.878;2023-01-24T01:47:17;102710.88;;;1.06;84.96
50484;BME280;36409;52.168;20.878;2023-01-24T01:49:52;102708.30;;;1.06;84.74
50484;BME280;36409;52.168;20.878;2023-01-24T01:52:25;102705.73;;;1.06;85.49
50484;BME280;36409;52.168;20.878;2023-01-24T01:54:59;102704.85;;;1.06;84.58
50484;BME280;36409;52.168;20.878;2023-01-24T01:57:32;102704.85;;;1.06;84.45
50484;BME280;36409;52.168;20.878;2023-01-24T02:00:07;102702.28;;;1.06;85.22
50484;BME280;36409;52.168;20.878;2023-01-24T02:02:46;102700.58;;;1.06;84.54
50484;BME280;36409;52.168;20.878;2023-01-24T02:05:20;102691.98;;;1.06;84.42
50484;BME280;36409;52.168;20.878;2023-01-24T02:07:53;102695.44;;;1.06;85.09
50484;BME280;36409;52.168;20.878;2023-01-24T02:10:25;102703.16;;;1.06;85.33
50484;BME280;36409;52.168;20.878;2023-01-24T02:13:17;102691.98;;;1.06;84.50
50484;BME280;36409;52.168;20.878;2023-01-24T02:15:46;102691.98;;;1.06;85.12
50484;BME280;36409;52.168;20.878;2023-01-24T02:18:38;102690.29;;;1.06;85.11
50484;BME280;36409;52.168;20.878;2023-01-24T02:21:11;102686.02;;;1.07;84.66
50484;BME280;36409;52.168;20.878;2023-01-24T02:23:48;102684.36;;;1.07;84.52
50484;BME280;36409;52.168;20.878;2023-01-24T02:26:22;102676.72;;;1.09;84.62
50484;BME280;36409;52.168;20.878;2023-01-24T02:28:54;102672.48;;;1.10;85.18
50484;BME280;36409;52.168;20.878;2023-01-24T02:31:25;102669.91;;;1.10;85.43
50484;BME280;36409;52.168;20.878;2023-01-24T02:33:55;102675.05;;;1.10;85.45
50484;BME280;36409;52.168;20.878;2023-01-24T02:36:28;102670.78;;;1.10;84.49
50484;BME280;36409;52.168;20.878;2023-01-24T02:38:59;102676.83;;;1.11;84.99
50484;BME280;36409;52.168;20.878;2023-01-24T02:41:35;102677.63;;;1.10;84.50
50484;BME280;36409;52.168;20.878;2023-01-24T02:44:12;102673.27;;;1.08;85.29
50484;BME280;36409;52.168;20.878;2023-01-24T02:46:44;102673.27;;;1.08;84.87
50484;BME280;36409;52.168;20.878;2023-01-24T02:49:14;102677.70;;;1.11;85.20
50484;BME280;36409;52.168;20.878;2023-01-24T02:51:44;102676.05;;;1.12;84.71
50484;BME280;36409;52.168;20.878;2023-01-24T02:54:33;102682.06;;;1.12;85.50
50484;BME280;36409;52.168;20.878;2023-01-24T02:57:02;102678.61;;;1.12;85.15
50484;BME280;36409;52.168;20.878;2023-01-24T02:59:53;102684.55;;;1.11;85.49
50484;BME280;36409;52.168;20.878;2023-01-24T03:02:25;102691.48;;;1.12;84.86
50484;BME280;36409;52.168;20.878;2023-01-24T03:04:54;102688.91;;;1.12;84.86
50484;BME280;36409;52.168;20.878;2023-01-24T03:07:27;102692.36;;;1.12;84.94
50484;BME280;36409;52.168;20.878;2023-01-24T03:10:14;102688.00;;;1.11;84.81
50484;BME280;36409;52.168;20.878;2023-01-24T03:12:45;102694.05;;;1.12;84.90
50484;BME280;36409;52.168;20.878;2023-01-24T03:15:33;102689.70;;;1.11;85.48
50484;BME280;36409;52.168;20.878;2023-01-24T03:18:20;102693.94;;;1.10;85.37
50484;BME280;36409;52.168;20.878;2023-01-24T03:21:10;102690.48;;;1.10;85.33
50484;BME280;36409;52.168;20.878;2023-01-24T03:23:57;102693.86;;;1.08;84.57
50484;BME280;36409;52.168;20.878;2023-01-24T03:26:50;102696.42;;;1.08;85.14
50484;BME280;36409;52.168;20.878;2023-01-24T03:29:38;102691.16;;;1.07;84.59
50484;BME280;36409;52.168;20.878;2023-01-24T03:32:26;102693.73;;;1.07;85.59
50484;BME280;36409;52.168;20.878;2023-01-24T03:35:17;102695.52;;;1.08;85.50
50484;BME280;36409;52.168;20.878;2023-01-24T03:37:48;102688.79;;;1.10;84.54
50484;BME280;36409;52.168;20.878;2023-01-24T03:40:36;102695.64;;;1.10;84.58
50484;BME280;36409;52.168;20.878;2023-01-24T03:43:06;102694.84;;;1.11;85.52
50484;BME280;36409;52.168;20.878;2023-01-24T03:45:39;102697.50;;;1.12;85.43
50484;BME280;36409;52.168;20.878;2023-01-24T03:48:12;102689.86;;;1.14;85.46
50484;BME280;36409;52.168;20.878;2023-01-24T03:50:43;102686.50;;;1.15;84.72
50484;BME280;36409;52.168;20.878;2023-01-24T03:53:35;102685.62;;;1.14;85.53
50484;BME280;36409;52.168;20.878;2023-01-24T03:56:06;102687.41;;;1.15;85.02
50484;BME280;36409;52.168;20.878;2023-01-24T03:58:41;102687.41;;;1.15;85.00
50484;BME280;36409;52.168;20.878;2023-01-24T04:01:16;102684.83;;;1.15;84.67
50484;BME280;36409;52.168;20.878;2023-01-24T04:03:55;102692.63;;;1.17;84.73
50484;BME280;36409;52.168;20.878;2023-01-24T04:06:24;102690.06;;;1.17;84.71
50484;BME280;36409;52.168;20.878;2023-01-24T04:08:54;102698.77;;;1.19;84.50
50484;BME280;36409;52.168;20.878;2023-01-24T04:11:24;102692.72;;;1.18;85.45
50484;BME280;36409;52.168;20.878;2023-01-24T04:13:58;102699.64;;;1.19;85.06
50484;BME280;36409;52.168;20.878;2023-01-24T04:16:28;102699.64;;;1.19;84.62
50484;BME280;36409;52.168;20.878;2023-01-24T04:19:18;102700.44;;;1.18;84.61
50484;BME280;36409;52.168;20.878;2023-01-24T04:21:48;102705.58;;;1.18;85.52
50484;BME280;36409;52.168;20.878;2023-01-24T04:24:19;102713.30;;;1.18;85.45
50484;BME280;36409;52.168;20.878;2023-01-24T04:26:49;102704.70;;;1.18;84.93
50484;BME280;36409;52.168;20.878;2023-01-24T04:29:21;102709.06;;;1.19;85.22
50484;BME280;36409;52.168;20.878;2023-01-24T04:31:51;102715.88;;;1.18;85.54
50484;BME280;36409;52.168;20.878;2023-01-24T04:34:32;102705.70;;;1.20;84.63
50484;BME280;36409;52.168;20.878;2023-01-24T04:37:01;102701.34;;;1.19;84.65
50484;BME280;36409;52.168;20.878;2023-01-24T04:39:31;102706.48;;;1.19;85.31
50484;BME280;36409;52.168;20.878;2023-01-24T04:42:11;102703.83;;;1.17;85.04
50484;BME280;36409;52.168;20.878;2023-01-24T04:44:41;102706.41;;;1.17;84.62
50484;BME280;36409;52.168;20.878;2023-01-24T04:47:15;102709.85;;;1.18;84.55
50484;BME280;36409;52.168;20.878;2023-01-24T04:50:02;102707.20;;;1.16;84.92
50484;BME280;36409;52.168;20.878;2023-01-24T04:52:34;102705.42;;;1.15;85.30
50484;BME280;36409;52.168;20.878;2023-01-24T04:55:08;102702.05;;;1.16;84.68
50484;BME280;36409;52.168;20.878;2023-01-24T04:57:37;102709.85;;;1.18;85.52
50484;BME280;36409;52.168;20.878;2023-01-24T05:00:09;102706.41;;;1.17;84.93
50484;BME280;36409;52.168;20.878;2023-01-24T05:02:39;102707.28;;;1.18;84.97
50484;BME280;36409;52.168;20.878;2023-01-24T05:05:09;102710.73;;;1.18;85.01
50484;BME280;36409;52.168;20.878;2023-01-24T05:07:39;102707.28;;;1.18;84.85
50484;BME280;36409;52.168;20.878;2023-01-24T05:10:12;102705.58;;;1.18;84.55
50484;BME280;36409;52.168;20.878;2023-01-24T05:12:42;102711.63;;;1.19;84.85
50484;BME280;36409;52.168;20.878;2023-01-24T05:15:25;102711.72;;;1.20;85.27
50484;BME280;36409;52.168;20.878;2023-01-24T05:17:54;102717.77;;;1.21;85.00
50484;BME280;36409;52.168;20.878;2023-01-24T05:20:25;102718.64;;;1.21;84.62
50484;BME280;36409;52.168;20.878;2023-01-24T05:22:56;102717.77;;;1.21;84.61
50484;BME280;36409;52.168;20.878;2023-01-24T05:25:27;102716.07;;;1.21;84.68
50484;BME280;36409;52.168;20.878;2023-01-24T05:27:56;102717.06;;;1.23;85.23
50484;BME280;36409;52.168;20.878;2023-01-24T05:30:25;102720.51;;;1.24;85.26
50484;BME280;36409;52.168;20.878;2023-01-24T05:32:57;102726.56;;;1.25;84.58
50484;BME280;36409;52.168;20.878;2023-01-24T05:35:26;102727.44;;;1.25;84.68
50484;BME280;36409;52.168;20.878;2023-01-24T05:37:55;102716.27;;;1.25;85.17
50484;BME280;36409;52.168;20.878;2023-01-24T05:40:25;102725.77;;;1.26;85.32
50484;BME280;36409;52.168;20.878;2023-01-24T05:42:56;102726.56;;;1.25;85.09
50484;BME280;36409;52.168;20.878;2023-01-24T05:45:26;102737.73;;;1.25;84.96
50484;BME280;36409;52.168;20.878;2023-01-24T05:47:56;102738.64;;;1.26;85.56
50484;BME280;36409;52.168;20.878;2023-01-24T05:50:25;102734.37;;;1.26;85.21
50484;BME280;36409;52.168;20.878;2023-01-24T05:53:15;102742.20;;;1.28;84.85
50484;BME280;36409;52.168;20.878;2023-01-24T05:55:44;102735.36;;;1.28;84.55
50484;BME280;36409;52.168;20.878;2023-01-24T05:58:13;102737.93;;;1.28;85.69
50484;BME280;36409;52.168;20.878;2023-01-24T06:00:56;102734.56;;;1.29;85.08
50484;BME280;36409;52.168;20.878;2023-01-24T06:03:37;102737.14;;;1.29;84.87
50484;BME280;36409;52.168;20.878;2023-01-24T06:06:08;102737.22;;;1.31;84.96
50484;BME280;36409;52.168;20.878;2023-01-24T06:08:38;102739.71;;;1.29;85.50
50484;BME280;36409;52.168;20.878;2023-01-24T06:11:11;102738.02;;;1.30;85.58
50484;BME280;36409;52.168;20.878;2023-01-24T06:13:41;102742.28;;;1.29;85.57
50484;BME280;36409;52.168;20.878;2023-01-24T06:16:12;102745.65;;;1.28;84.59
50484;BME280;36409;52.168;20.878;2023-01-24T06:18:43;102747.34;;;1.28;84.86
50484;BME280;36409;52.168;20.878;2023-01-24T06:21:21;102747.43;;;1.29;84.77
50484;BME280;36409;52.168;20.878;2023-01-24T06:23:55;102749.22;;;1.30;84.71
50484;BME280;36409;52.168;20.878;2023-01-24T06:26:30;102747.52;;;1.31;85.11
50484;BME280;36409;52.168;20.878;2023-01-24T06:29:01;102754.44;;;1.32;85.06
50484;BME280;36409;52.168;20.878;2023-01-24T06:31:46;102748.42;;;1.31;84.71
50484;BME280;36409;52.168;20.878;2023-01-24T06:34:26;102746.72;;;1.32;84.84
50484;BME280;36409;52.168;20.878;2023-01-24T06:37:11;102744.27;;;1.33;85.66
50484;BME280;36409;52.168;20.878;2023-01-24T06:39:47;102755.44;;;1.34;84.86
50484;BME280;36409;52.168;20.878;2023-01-24T06:42:19;102757.30;;;1.36;84.79
50484;BME280;36409;52.168;20.878;2023-01-24T06:44:50;102764.23;;;1.37;85.64
50484;BME280;36409;52.168;20.878;2023-01-24T06:47:19;102766.92;;;1.39;84.83
50484;BME280;36409;52.168;20.878;2023-01-24T06:49:49;102776.42;;;1.40;84.88
50484;BME280;36409;52.168;20.878;2023-01-24T06:52:18;102779.88;;;1.41;85.57
50484;BME280;36409;52.168;20.878;2023-01-24T06:54:47;102775.59;;;1.41;85.74
50484;BME280;36409;52.168;20.878;2023-01-24T06:57:16;102780.06;;;1.44;85.10
50484;BME280;36409;52.168;20.878;2023-01-24T06:59:45;102778.28;;;1.43;85.64
50484;BME280;36409;52.168;20.878;2023-01-24T07:02:13;102783.44;;;1.43;85.21
50484;BME280;36409;52.168;20.878;2023-01-24T07:04:43;102781.73;;;1.43;85.55
50484;BME280;36409;52.168;20.878;2023-01-24T07:07:12;102783.52;;;1.44;85.22
50484;BME280;36409;52.168;20.878;2023-01-24T07:09:41;102784.42;;;1.45;84.68
50484;BME280;36409;52.168;20.878;2023-01-24T07:12:11;102782.02;;;1.48;84.83
50484;BME280;36409;52.168;20.878;2023-01-24T07:14:41;102779.56;;;1.49;85.58
50484;BME280;36409;52.168;20.878;2023-01-24T07:17:11;102779.72;;;1.52;84.86
50484;BME280;36409;52.168;20.878;2023-01-24T07:19:44;102784.20;;;1.55;85.20
50484;BME280;36409;52.168;20.878;2023-01-24T07:22:14;102777.34;;;1.56;84.77
50484;BME280;36409;52.168;20.878;2023-01-24T07:24:44;102773.11;;;1.56;84.69
50484;BME280;36409;52.168;20.878;2023-01-24T07:27:15;102784.28;;;1.57;84.74
50484;BME280;36409;52.168;20.878;2023-01-24T07:29:45;102791.20;;;1.58;85.10
50484;BME280;36409;52.168;20.878;2023-01-24T07:32:15;102775.05;;;1.60;85.21
50484;BME280;36409;52.168;20.878;2023-01-24T07:34:44;102778.69;;;1.64;85.28
50484;BME280;36409;52.168;20.878;2023-01-24T07:37:13;102778.02;;;1.66;84.93
50484;BME280;36409;52.168;20.878;2023-01-24T07:39:42;102778.17;;;1.69;85.60
50484;BME280;36409;52.168;20.878;2023-01-24T07:42:13;102768.86;;;1.72;85.20
50484;BME280;36409;52.168;20.878;2023-01-24T07:44:43;102775.99;;;1.76;85.76
50484;BME280;36409;52.168;20.878;2023-01-24T07:47:12;102772.63;;;1.77;85.69
50484;BME280;36409;52.168;20.878;2023-01-24T07:49:43;102779.55;;;1.78;85.75
50484;BME280;36409;52.168;20.878;2023-01-24T07:52:12;102777.97;;;1.80;85.38
50484;BME280;36409;52.168;20.878;2023-01-24T07:54:42;102784.98;;;1.82;84.74
50484;BME280;36409;52.168;20.878;2023-01-24T07:57:11;102776.34;;;1.82;85.46
50484;BME280;36409;52.168;20.878;2023-01-24T07:59:44;102780.90;;;1.86;85.34
50484;BME280;36409;52.168;20.878;2023-01-24T08:02:14;102789.70;;;1.90;84.81
50484;BME280;36409;52.168;20.878;2023-01-24T08:04:44;102785.61;;;1.93;85.57
50484;BME280;36409;52.168;20.878;2023-01-24T08:07:13;102786.79;;;1.98;85.76
50484;BME280;36409;52.168;20.878;2023-01-24T08:09:48;102786.98;;;2.02;85.42
50484;BME280;36409;52.168;20.878;2023-01-24T08:12:25;102783.77;;;2.06;85.46
50484;BME280;36409;52.168;20.878;2023-01-24T08:14:55;102784.95;;;2.11;84.86
50484;BME280;36409;52.168;20.878;2023-01-24T08:17:26;102785.10;;;2.14;85.42
50484;BME280;36409;52.168;20.878;2023-01-24T08:19:56;102790.37;;;2.15;85.46
50484;BME280;36409;52.168;20.878;2023-01-24T08:22:26;102791.24;;;2.16;85.31
50484;BME280;36409;52.168;20.878;2023-01-24T08:24:56;102786.20;;;2.18;84.75
50484;BME280;36409;52.168;20.878;2023-01-24T08:27:29;102788.06;;;2.20;84.60
50484;BME280;36409;52.168;20.878;2023-01-24T08:29:59;102787.27;;;2.21;85.51
50484;BME280;36409;52.168;20.878;2023-01-24T08:32:28;102787.45;;;2.24;85.38
50484;BME280;36409;52.168;20.878;2023-01-24T08:34:58;102787.80;;;2.30;85.58
50484;BME280;36409;52.168;20.878;2023-01-24T08:37:30;102791.55;;;2.36;85.71
50484;BME280;36409;52.168;20.878;2023-01-24T08:39:59;102784.77;;;2.38;84.97
50484;BME280;36409;52.168;20.878;2023-01-24T08:42:31;102791.70;;;2.39;85.55
50484;BME280;36409;52.168;20.878;2023-01-24T08:45:01;102792.77;;;2.42;85.53
50484;BME280;36409;52.168;20.878;2023-01-24T08:47:36;102793.86;;;2.46;85.55
50484;BME280;36409;52.168;20.878;2023-01-24T08:50:11;102797.57;;;2.51;84.71
50484;BME280;36409;52.168;20.878;2023-01-24T08:52:47;102784.86;;;2.54;85.54
50484;BME280;36409;52.168;20.878;2023-01-24T08:55:16;102784.25;;;2.58;84.90
50484;BME280;36409;52.168;20.878;2023-01-24T08:57:48;102790.47;;;2.62;85.33
50484;BME280;36409;52.168;20.878;2023-01-24T09:00:20;102786.44;;;2.67;84.53
50484;BME280;36409;52.168;20.878;2023-01-24T09:02:54;102788.14;;;2.67;84.92
50484;BME280;36409;52.168;20.878;2023-01-24T09:05:23;102790.98;;;2.71;84.67
50484;BME280;36409;52.168;20.878;2023-01-24T09:07:54;102792.12;;;2.76;85.37
50484;BME280;36409;52.168;20.878;2023-01-24T09:10:26;102792.41;;;2.81;85.49
50484;BME280;36409;52.168;20.878;2023-01-24T09:12:55;102790.70;;;2.82;85.06
50484;BME280;36409;52.168;20.878;2023-01-24T09:15:24;102793.36;;;2.83;84.66
50484;BME280;36409;52.168;20.878;2023-01-24T09:18:00;102797.72;;;2.84;84.55
50484;BME280;36409;52.168;20.878;2023-01-24T09:20:32;102789.98;;;2.84;84.27
50484;BME280;36409;52.168;20.878;2023-01-24T09:23:09;102789.98;;;2.84;84.97
50484;BME280;36409;52.168;20.878;2023-01-24T09:25:40;102786.70;;;2.87;85.08
50484;BME280;36409;52.168;20.878;2023-01-24T09:28:11;102774.61;;;2.86;84.26
50484;BME280;36409;52.168;20.878;2023-01-24T09:30:50;102773.88;;;2.88;84.85
50484;BME280;36409;52.168;20.878;2023-01-24T09:33:22;102775.73;;;2.91;84.91
50484;BME280;36409;52.168;20.878;2023-01-24T09:35:53;102772.28;;;2.90;84.13
50484;BME280;36409;52.168;20.878;2023-01-24T09:38:24;102768.80;;;2.90;84.71
50484;BME280;36409;52.168;20.878;2023-01-24T09:41:00;102773.95;;;2.90;84.42
50484;BME280;36409;52.168;20.878;2023-01-24T09:43:42;102770.39;;;2.88;84.61
50484;BME280;36409;52.168;20.878;2023-01-24T09:46:25;102779.84;;;2.87;84.80
50484;BME280;36409;52.168;20.878;2023-01-24T09:49:17;102780.71;;;2.88;84.32
50484;BME280;36409;52.168;20.878;2023-01-24T09:51:53;102776.38;;;2.87;84.13
50484;BME280;36409;52.168;20.878;2023-01-24T09:54:31;102776.53;;;2.90;84.35
50484;BME280;36409;52.168;20.878;2023-01-24T09:57:15;102769.77;;;2.92;84.63
50484;BME280;36409;52.168;20.878;2023-01-24T09:59:52;102781.00;;;2.92;84.79
50484;BME280;36409;52.168;20.878;2023-01-24T10:02:24;102777.58;;;2.93;84.33
50484;BME280;36409;52.168;20.878;2023-01-24T10:04:56;102787.03;;;2.93;84.71
50484;BME280;36409;52.168;20.878;2023-01-24T10:10:31;102787.76;;;2.90;83.99
50484;BME280;36409;52.168;20.878;2023-01-24T10:13:16;102787.50;;;2.86;84.48
50484;BME280;36409;52.168;20.878;2023-01-24T10:15:59;102786.52;;;2.84;84.35
50484;BME280;36409;52.168;20.878;2023-01-24T10:18:43;102791.42;;;2.79;84.17
50484;BME280;36409;52.168;20.878;2023-01-24T10:21:26;102790.45;;;2.77;84.59
50484;BME280;36409;52.168;20.878;2023-01-24T10:23:59;102792.84;;;2.74;84.58
50484;BME280;36409;52.168;20.878;2023-01-24T10:26:49;102783.43;;;2.74;84.84
50484;BME280;36409;52.168;20.878;2023-01-24T10:29:22;102784.30;;;2.75;84.18
50484;BME280;36409;52.168;20.878;2023-01-24T10:31:58;102786.16;;;2.77;84.62
50484;BME280;36409;52.168;20.878;2023-01-24T10:34:33;102775.95;;;2.79;84.15
50484;BME280;36409;52.168;20.878;2023-01-24T10:37:15;102783.84;;;2.82;84.01
50484;BME280;36409;52.168;20.878;2023-01-24T10:39:46;102787.39;;;2.84;84.16
50484;BME280;36409;52.168;20.878;2023-01-24T10:42:21;102780.56;;;2.85;84.14
50484;BME280;36409;52.168;20.878;2023-01-24T10:44:57;102782.23;;;2.84;83.83
50484;BME280;36409;52.168;20.878;2023-01-24T10:47:44;102778.53;;;2.79;84.28
50484;BME280;36409;52.168;20.878;2023-01-24T10:50:17;102783.58;;;2.77;83.84
50484;BME280;36409;52.168;20.878;2023-01-24T10:52:49;102784.38;;;2.76;84.49
50484;BME280;36409;52.168;20.878;2023-01-24T10:55:31;102779.22;;;2.76;84.11
50484;BME280;36409;52.168;20.878;2023-01-24T10:58:22;102778.34;;;2.76;84.15
50484;BME280;36409;52.168;20.878;2023-01-24T11:01:04;102780.13;;;2.77;83.87
50484;BME280;36409;52.168;20.878;2023-01-24T11:03:39;102780.92;;;2.76;84.15
50484;BME280;36409;52.168;20.878;2023-01-24T11:06:24;102775.69;;;2.74;84.37
50484;BME280;36409;52.168;20.878;2023-01-24T11:09:00;102772.20;;;2.74;84.27
50484;BME280;36409;52.168;20.878;2023-01-24T11:11:38;102775.44;;;2.70;83.88
50484;BME280;36409;52.168;20.878;2023-01-24T11:14:14;102764.94;;;2.67;83.93
50484;BME280;36409;52.168;20.878;2023-01-24T11:16:47;102762.36;;;2.67;84.15
50484;BME280;36409;52.168;20.878;2023-01-24T11:19:31;102767.52;;;2.67;84.39
50484;BME280;36409;52.168;20.878;2023-01-24T11:22:22;102763.23;;;2.67;84.16
50484;BME280;36409;52.168;20.878;2023-01-24T11:25:03;102762.61;;;2.71;84.16
50484;BME280;36409;52.168;20.878;2023-01-24T11:27:47;102757.70;;;2.76;83.99
50484;BME280;36409;52.168;20.878;2023-01-24T11:30:20;102763.92;;;2.80;83.82
50484;BME280;36409;52.168;20.878;2023-01-24T11:33:01;102769.19;;;2.81;83.91
50484;BME280;36409;52.168;20.878;2023-01-24T11:35:37;102764.03;;;2.81;84.06
50484;BME280;36409;52.168;20.878;2023-01-24T11:38:26;102761.34;;;2.80;83.63
50484;BME280;36409;52.168;20.878;2023-01-24T11:41:10;102764.91;;;2.82;84.27
50484;BME280;36409;52.168;20.878;2023-01-24T11:43:57;102766.69;;;2.83;84.10
50484;BME280;36409;52.168;20.878;2023-01-24T11:46:48;102764.10;;;2.83;84.55
50484;BME280;36409;52.168;20.878;2023-01-24T11:49:48;102748.55;;;2.81;83.71
50484;BME280;36409;52.168;20.878;2023-01-24T11:52:42;102750.30;;;2.82;83.70
50484;BME280;36409;52.168;20.878;2023-01-24T11:55:23;102750.30;;;2.82;84.64
50484;BME280;36409;52.168;20.878;2023-01-24T11:58:02;102756.37;;;2.83;84.16
50484;BME280;36409;52.168;20.878;2023-01-24T12:00:37;102755.38;;;2.81;83.65
50484;BME280;36409;52.168;20.878;2023-01-24T12:03:28;102752.80;;;2.81;83.58
50484;BME280;36409;52.168;20.878;2023-01-24T12:06:23;102753.61;;;2.80;84.02
50484;BME280;36409;52.168;20.878;2023-01-24T12:09:07;102745.80;;;2.78;83.66
50484;BME280;36409;52.168;20.878;2023-01-24T12:11:40;102740.63;;;2.78;83.68
50484;BME280;36409;52.168;20.878;2023-01-24T12:14:34;102737.15;;;2.77;83.68
50484;BME280;36409;52.168;20.878;2023-01-24T12:17:18;102723.55;;;2.80;84.06
50484;BME280;36409;52.168;20.878;2023-01-24T12:20:15;102724.61;;;2.84;83.58
50484;BME280;36409;52.168;20.878;2023-01-24T12:23:05;102722.91;;;2.84;84.32
50484;BME280;36409;52.168;20.878;2023-01-24T12:25:46;102727.44;;;2.88;84.16
50484;BME280;36409;52.168;20.878;2023-01-24T12:28:35;102724.86;;;2.88;84.03
50484;BME280;36409;52.168;20.878;2023-01-24T12:31:07;102730.20;;;2.91;84.42
50484;BME280;36409;52.168;20.878;2023-01-24T12:33:42;102726.81;;;2.92;83.89
50484;BME280;36409;52.168;20.878;2023-01-24T12:36:18;102722.45;;;2.91;83.75
50484;BME280;36409;52.168;20.878;2023-01-24T12:39:01;102706.17;;;2.92;84.13
50484;BME280;36409;52.168;20.878;2023-01-24T12:41:38;102703.84;;;2.97;84.05
50484;BME280;36409;52.168;20.878;2023-01-24T12:44:26;102698.13;;;3.03;84.57
50484;BME280;36409;52.168;20.878;2023-01-24T12:47:11;102699.25;;;3.08;84.40
50484;BME280;36409;52.168;20.878;2023-01-24T12:49:58;102701.93;;;3.09;83.65
50484;BME280;36409;52.168;20.878;2023-01-24T12:52:38;102709.74;;;3.11;83.66
50484;BME280;36409;52.168;20.878;2023-01-24T12:55:13;102705.45;;;3.12;84.22
50484;BME280;36409;52.168;20.878;2023-01-24T12:57:53;102707.23;;;3.13;84.20
50484;BME280;36409;52.168;20.878;2023-01-24T13:00:29;102702.00;;;3.11;84.07
50484;BME280;36409;52.168;20.878;2023-01-24T13:03:33;102708.14;;;3.13;83.51
50484;BME280;36409;52.168;20.878;2023-01-24T13:06:15;102705.45;;;3.12;83.84
50484;BME280;36409;52.168;20.878;2023-01-24T13:08:55;102707.09;;;3.09;83.40
50484;BME280;36409;52.168;20.878;2023-01-24T13:11:33;102712.15;;;3.08;83.52
50484;BME280;36409;52.168;20.878;2023-01-24T13:14:21;102699.17;;;3.06;83.63
50484;BME280;36409;52.168;20.878;2023-01-24T13:17:21;102700.84;;;3.06;84.07
50484;BME280;36409;52.168;20.878;2023-01-24T13:20:13;102703.36;;;3.04;83.84
50484;BME280;36409;52.168;20.878;2023-01-24T13:23:14;102703.29;;;3.03;83.93
50484;BME280;36409;52.168;20.878;2023-01-24T13:26:03;102704.72;;;2.98;83.81
50484;BME280;36409;52.168;20.878;2023-01-24T13:28:44;102711.66;;;2.99;83.57
50484;BME280;36409;52.168;20.878;2023-01-24T13:31:22;102711.66;;;2.99;83.98
50484;BME280;36409;52.168;20.878;2023-01-24T13:33:56;102710.67;;;2.97;83.89
50484;BME280;36409;52.168;20.878;2023-01-24T13:36:32;102713.08;;;2.93;83.65